Aérodrome :
LOGIN :

S'inscrire | Disclaimer

   EN    FR    IT 

 










Légende :    VFR   VFR Marginal   IFR   IFR Intensif   IFR Très Intensif
Visi : 
Plafond : 
>= 8 km
>= 3000ft
5 à 8 km
1000 à 3000 ft
1500m à 5 km
500 à 1000 ft
800 à 1500m
200 à 500 ft
< 800m
< 200 ft
Symboles :   Orages  Brouillard  Fortes neiges  Fortes précipitations  Vent > 20 kt
SIGMETs :   Divers  Orages  Givrage  Turbulence  Onde Orograph.  Cendres Volcan.






- Altitude de l'aérodrome : 74 ft
- Code IATA : MRS


LFML - Marseille / Marignane

DERNIER METAR :
  • 200030Z AUTO 36010KT CAVOK 05/M00 Q1030 NOSIG

METARs EXPIRÉS :
  • 200000Z AUTO 34011KT CAVOK 05/M00 Q1030 NOSIG
  • 192330Z AUTO 34011KT CAVOK 05/M00 Q1030 NOSIG
  • 192300Z AUTO 35009KT CAVOK 05/M01 Q1030 NOSIG
  • 192230Z AUTO 34008KT CAVOK 05/M00 Q1029 NOSIG
  • 192200Z AUTO 02007KT 350V060 CAVOK 04/M01 Q1029 NOSIG

TAF TAF LFML
Valide du 19 à 21h jusqu'au 21 à 03h UTC


192000Z 1921/2103 36010KT CAVOK
BECMG 2018/2020 BKN046
TEMPO 2100/2103 RA BKN040
ATIS : +33 4 42 31 15 15



MET'MAP, la Météo Aéronautique d'un coup d'oeil ! - Copyright ORBIFLY Décembre 2007 - Disclaimer

ORBIFLY MET'MAP TEAM :

Programmation & Développement : Alexandra Zaïnal
Sur une idée originale de : Baudouin d'Aumeries
Assistance à la programmation : Marc-Olivier Méhu
Soutien technique & logistique : Manuel Goepfert

Contact : metmap@orbifly.com




SOURCES & CREDITS :

   NOAA